sensor_id;sensor_type;location;lat;lon;timestamp;temperature;humidity
439;DHT22;206;48.782;9.252;2024-01-15T00:00:42;1.90;29.50
439;DHT22;206;48.782;9.252;2024-01-15T00:03:08;2.00;29.50
439;DHT22;206;48.782;9.252;2024-01-15T00:05:33;2.00;29.30
439;DHT22;206;48.782;9.252;2024-01-15T00:07:59;2.00;29.10
439;DHT22;206;48.782;9.252;2024-01-15T00:10:24;2.00;29.00
439;DHT22;206;48.782;9.252;2024-01-15T00:12:50;2.00;28.70
439;DHT22;206;48.782;9.252;2024-01-15T00:15:16;1.90;29.00
439;DHT22;206;48.782;9.252;2024-01-15T00:17:41;1.80;29.30
439;DHT22;206;48.782;9.252;2024-01-15T00:20:07;1.70;29.20
439;DHT22;206;48.782;9.252;2024-01-15T00:22:33;1.70;29.50
439;DHT22;206;48.782;9.252;2024-01-15T00:25:01;1.60;29.90
439;DHT22;206;48.782;9.252;2024-01-15T00:27:26;1.50;30.00
439;DHT22;206;48.782;9.252;2024-01-15T00:29:52;1.50;30.00
439;DHT22;206;48.782;9.252;2024-01-15T00:32:18;1.50;30.30
439;DHT22;206;48.782;9.252;2024-01-15T00:34:43;1.40;30.20
439;DHT22;206;48.782;9.252;2024-01-15T00:37:09;1.40;30.40
439;DHT22;206;48.782;9.252;2024-01-15T00:39:34;1.40;30.70
439;DHT22;206;48.782;9.252;2024-01-15T00:42:00;1.40;30.80
439;DHT22;206;48.782;9.252;2024-01-15T00:44:26;1.40;31.00
439;DHT22;206;48.782;9.252;2024-01-15T00:46:52;1.30;31.00
439;DHT22;206;48.782;9.252;2024-01-15T00:49:17;1.30;31.30
439;DHT22;206;48.782;9.252;2024-01-15T00:51:43;1.30;31.30
439;DHT22;206;48.782;9.252;2024-01-15T00:54:09;1.30;31.60
439;DHT22;206;48.782;9.252;2024-01-15T00:56:34;1.20;31.80
439;DHT22;206;48.782;9.252;2024-01-15T00:59:00;1.20;32.20
439;DHT22;206;48.782;9.252;2024-01-15T01:01:26;1.20;32.60
439;DHT22;206;48.782;9.252;2024-01-15T01:03:51;1.20;32.60
439;DHT22;206;48.782;9.252;2024-01-15T01:06:17;1.20;32.60
439;DHT22;206;48.782;9.252;2024-01-15T01:08:42;1.20;32.60
439;DHT22;206;48.782;9.252;2024-01-15T01:11:13;1.20;33.00
439;DHT22;206;48.782;9.252;2024-01-15T01:13:38;1.20;33.20
439;DHT22;206;48.782;9.252;2024-01-15T01:16:04;1.20;33.30
439;DHT22;206;48.782;9.252;2024-01-15T01:18:30;1.10;33.40
439;DHT22;206;48.782;9.252;2024-01-15T01:20:55;1.10;34.30
439;DHT22;206;48.782;9.252;2024-01-15T01:23:21;1.20;33.80
439;DHT22;206;48.782;9.252;2024-01-15T01:25:46;1.20;34.00
439;DHT22;206;48.782;9.252;2024-01-15T01:28:12;1.20;34.20
439;DHT22;206;48.782;9.252;2024-01-15T01:30:37;1.30;33.90
439;DHT22;206;48.782;9.252;2024-01-15T01:33:03;1.30;33.70
439;DHT22;206;48.782;9.252;2024-01-15T01:35:28;1.40;33.30
439;DHT22;206;48.782;9.252;2024-01-15T01:37:54;1.50;33.10
439;DHT22;206;48.782;9.252;2024-01-15T01:40:20;1.50;32.90
439;DHT22;206;48.782;9.252;2024-01-15T01:42:45;1.60;32.90
439;DHT22;206;48.782;9.252;2024-01-15T01:45:11;1.60;32.90
439;DHT22;206;48.782;9.252;2024-01-15T01:47:37;1.60;32.90
439;DHT22;206;48.782;9.252;2024-01-15T01:50:04;1.70;33.00
439;DHT22;206;48.782;9.252;2024-01-15T01:52:30;1.70;33.00
439;DHT22;206;48.782;9.252;2024-01-15T01:54:57;1.70;33.00
439;DHT22;206;48.782;9.252;2024-01-15T01:57:23;1.80;33.10
439;DHT22;206;48.782;9.252;2024-01-15T01:59:50;1.80;33.10
439;DHT22;206;48.782;9.252;2024-01-15T02:02:16;1.90;33.10
439;DHT22;206;48.782;9.252;2024-01-15T02:04:42;1.90;33.10
439;DHT22;206;48.782;9.252;2024-01-15T02:07:08;2.00;33.20
439;DHT22;206;48.782;9.252;2024-01-15T02:09:35;2.00;32.70
439;DHT22;206;48.782;9.252;2024-01-15T02:12:01;2.00;32.80
439;DHT22;206;48.782;9.252;2024-01-15T02:14:26;2.00;32.70
439;DHT22;206;48.782;9.252;2024-01-15T02:16:52;2.00;33.00
439;DHT22;206;48.782;9.252;2024-01-15T02:19:18;2.00;33.30
439;DHT22;206;48.782;9.252;2024-01-15T02:21:44;2.00;33.10
439;DHT22;206;48.782;9.252;2024-01-15T02:24:10;1.90;32.70
439;DHT22;206;48.782;9.252;2024-01-15T02:26:37;1.90;33.10
439;DHT22;206;48.782;9.252;2024-01-15T02:29:04;1.80;33.10
439;DHT22;206;48.782;9.252;2024-01-15T02:31:30;1.80;33.60
439;DHT22;206;48.782;9.252;2024-01-15T02:33:56;1.70;33.80
439;DHT22;206;48.782;9.252;2024-01-15T02:36:21;1.70;34.00
439;DHT22;206;48.782;9.252;2024-01-15T02:38:47;1.70;34.20
439;DHT22;206;48.782;9.252;2024-01-15T02:41:12;1.70;34.30
439;DHT22;206;48.782;9.252;2024-01-15T02:43:40;1.70;33.90
439;DHT22;206;48.782;9.252;2024-01-15T02:46:06;1.70;33.80
439;DHT22;206;48.782;9.252;2024-01-15T02:48:32;1.70;33.70
439;DHT22;206;48.782;9.252;2024-01-15T02:50:58;1.60;33.60
439;DHT22;206;48.782;9.252;2024-01-15T02:53:24;1.60;33.80
439;DHT22;206;48.782;9.252;2024-01-15T02:55:50;1.60;34.10
439;DHT22;206;48.782;9.252;2024-01-15T02:58:15;1.50;34.50
439;DHT22;206;48.782;9.252;2024-01-15T03:00:41;1.60;34.50
439;DHT22;206;48.782;9.252;2024-01-15T03:03:07;1.50;34.50
439;DHT22;206;48.782;9.252;2024-01-15T03:05:33;1.50;34.60
439;DHT22;206;48.782;9.252;2024-01-15T03:07:59;1.50;34.40
439;DHT22;206;48.782;9.252;2024-01-15T03:10:24;1.50;34.80
439;DHT22;206;48.782;9.252;2024-01-15T03:12:50;1.50;34.80
439;DHT22;206;48.782;9.252;2024-01-15T03:15:15;1.40;35.00
439;DHT22;206;48.782;9.252;2024-01-15T03:17:41;1.40;34.80
439;DHT22;206;48.782;9.252;2024-01-15T03:20:08;1.40;34.90
439;DHT22;206;48.782;9.252;2024-01-15T03:22:34;1.40;35.80
439;DHT22;206;48.782;9.252;2024-01-15T03:24:59;1.40;35.40
439;DHT22;206;48.782;9.252;2024-01-15T03:27:25;1.40;35.30
439;DHT22;206;48.782;9.252;2024-01-15T03:29:51;1.40;35.50
439;DHT22;206;48.782;9.252;2024-01-15T03:32:17;1.40;35.50
439;DHT22;206;48.782;9.252;2024-01-15T03:34:43;1.40;35.30
439;DHT22;206;48.782;9.252;2024-01-15T03:37:08;1.40;35.20
439;DHT22;206;48.782;9.252;2024-01-15T03:39:34;1.40;35.20
439;DHT22;206;48.782;9.252;2024-01-15T03:41:59;1.50;35.30
439;DHT22;206;48.782;9.252;2024-01-15T03:44:25;1.50;35.00
439;DHT22;206;48.782;9.252;2024-01-15T03:46:51;1.50;35.00
439;DHT22;206;48.782;9.252;2024-01-15T03:49:16;1.50;35.20
439;DHT22;206;48.782;9.252;2024-01-15T03:51:42;1.50;35.40
439;DHT22;206;48.782;9.252;2024-01-15T03:54:07;1.50;35.40
439;DHT22;206;48.782;9.252;2024-01-15T03:56:33;1.50;35.00
439;DHT22;206;48.782;9.252;2024-01-15T03:58:58;1.50;35.10
439;DHT22;206;48.782;9.252;2024-01-15T04:01:24;1.50;35.30
439;DHT22;206;48.782;9.252;2024-01-15T04:03:49;1.50;35.20
439;DHT22;206;48.782;9.252;2024-01-15T04:06:15;1.50;35.30
439;DHT22;206;48.782;9.252;2024-01-15T04:08:41;1.60;35.60
439;DHT22;206;48.782;9.252;2024-01-15T04:11:06;1.60;35.70
439;DHT22;206;48.782;9.252;2024-01-15T04:13:35;1.60;35.20
439;DHT22;206;48.782;9.252;2024-01-15T04:16:01;1.70;35.00
439;DHT22;206;48.782;9.252;2024-01-15T04:18:26;1.70;34.80
439;DHT22;206;48.782;9.252;2024-01-15T04:20:52;1.80;34.70
439;DHT22;206;48.782;9.252;2024-01-15T04:23:17;1.80;34.80
439;DHT22;206;48.782;9.252;2024-01-15T04:25:43;1.90;34.80
439;DHT22;206;48.782;9.252;2024-01-15T04:28:09;1.90;34.50
439;DHT22;206;48.782;9.252;2024-01-15T04:30:35;2.00;33.90
439;DHT22;206;48.782;9.252;2024-01-15T04:33:01;2.00;33.60
439;DHT22;206;48.782;9.252;2024-01-15T04:35:26;2.00;33.40
439;DHT22;206;48.782;9.252;2024-01-15T04:37:52;2.10;33.30
439;DHT22;206;48.782;9.252;2024-01-15T04:40:18;2.20;33.40
439;DHT22;206;48.782;9.252;2024-01-15T04:42:43;2.20;33.40
439;DHT22;206;48.782;9.252;2024-01-15T04:45:11;2.20;33.40
439;DHT22;206;48.782;9.252;2024-01-15T04:47:37;2.30;33.50
439;DHT22;206;48.782;9.252;2024-01-15T04:50:04;2.30;33.50
439;DHT22;206;48.782;9.252;2024-01-15T04:52:29;2.30;33.50
439;DHT22;206;48.782;9.252;2024-01-15T04:54:55;2.40;33.40
439;DHT22;206;48.782;9.252;2024-01-15T04:57:20;2.40;33.00
439;DHT22;206;48.782;9.252;2024-01-15T04:59:46;2.50;32.60
439;DHT22;206;48.782;9.252;2024-01-15T05:02:11;2.50;32.60
439;DHT22;206;48.782;9.252;2024-01-15T05:04:37;2.50;32.40
439;DHT22;206;48.782;9.252;2024-01-15T05:07:03;2.50;32.30
439;DHT22;206;48.782;9.252;2024-01-15T05:09:28;2.50;32.10
439;DHT22;206;48.782;9.252;2024-01-15T05:11:54;2.50;32.30
439;DHT22;206;48.782;9.252;2024-01-15T05:14:20;2.40;32.30
439;DHT22;206;48.782;9.252;2024-01-15T05:16:49;2.40;32.50
439;DHT22;206;48.782;9.252;2024-01-15T05:19:17;2.40;32.40
439;DHT22;206;48.782;9.252;2024-01-15T05:21:43;2.40;32.80
439;DHT22;206;48.782;9.252;2024-01-15T05:24:09;2.40;32.80
439;DHT22;206;48.782;9.252;2024-01-15T05:26:34;2.40;33.00
439;DHT22;206;48.782;9.252;2024-01-15T05:29:00;2.30;32.80
439;DHT22;206;48.782;9.252;2024-01-15T05:31:26;2.20;32.90
439;DHT22;206;48.782;9.252;2024-01-15T05:33:51;2.20;32.80
439;DHT22;206;48.782;9.252;2024-01-15T05:36:17;2.20;33.00
439;DHT22;206;48.782;9.252;2024-01-15T05:38:42;2.20;32.60
439;DHT22;206;48.782;9.252;2024-01-15T05:41:08;2.30;32.50
439;DHT22;206;48.782;9.252;2024-01-15T05:43:34;2.30;32.80
439;DHT22;206;48.782;9.252;2024-01-15T05:46:00;2.40;32.90
439;DHT22;206;48.782;9.252;2024-01-15T05:48:25;2.40;33.60
439;DHT22;206;48.782;9.252;2024-01-15T05:50:51;2.30;33.50
439;DHT22;206;48.782;9.252;2024-01-15T05:53:17;2.30;33.50
439;DHT22;206;48.782;9.252;2024-01-15T05:55:42;2.30;33.50
439;DHT22;206;48.782;9.252;2024-01-15T05:58:08;2.30;33.50
439;DHT22;206;48.782;9.252;2024-01-15T06:00:33;2.30;33.50
439;DHT22;206;48.782;9.252;2024-01-15T06:03:00;2.40;33.60
439;DHT22;206;48.782;9.252;2024-01-15T06:05:26;2.40;33.60
439;DHT22;206;48.782;9.252;2024-01-15T06:07:52;2.40;33.60
439;DHT22;206;48.782;9.252;2024-01-15T06:10:17;2.40;33.60
439;DHT22;206;48.782;9.252;2024-01-15T06:12:44;2.30;33.50
439;DHT22;206;48.782;9.252;2024-01-15T06:15:10;2.40;33.60
439;DHT22;206;48.782;9.252;2024-01-15T06:17:36;2.40;33.60
439;DHT22;206;48.782;9.252;2024-01-15T06:20:03;2.40;33.60
439;DHT22;206;48.782;9.252;2024-01-15T06:22:28;2.40;33.60
439;DHT22;206;48.782;9.252;2024-01-15T06:24:54;2.40;33.60
439;DHT22;206;48.782;9.252;2024-01-15T06:27:21;2.50;33.60
439;DHT22;206;48.782;9.252;2024-01-15T06:29:46;2.50;33.60
439;DHT22;206;48.782;9.252;2024-01-15T06:32:12;2.50;33.70
439;DHT22;206;48.782;9.252;2024-01-15T06:34:38;2.50;33.60
439;DHT22;206;48.782;9.252;2024-01-15T06:37:04;2.60;33.60
439;DHT22;206;48.782;9.252;2024-01-15T06:39:30;2.50;33.60
439;DHT22;206;48.782;9.252;2024-01-15T06:41:56;2.60;33.70
439;DHT22;206;48.782;9.252;2024-01-15T06:44:21;2.60;34.30
439;DHT22;206;48.782;9.252;2024-01-15T06:46:47;2.60;33.70
439;DHT22;206;48.782;9.252;2024-01-15T06:49:13;2.70;33.80
439;DHT22;206;48.782;9.252;2024-01-15T06:51:39;2.70;33.80
439;DHT22;206;48.782;9.252;2024-01-15T06:54:05;2.60;33.70
439;DHT22;206;48.782;9.252;2024-01-15T06:56:31;2.60;33.70
439;DHT22;206;48.782;9.252;2024-01-15T06:58:57;2.60;33.20
439;DHT22;206;48.782;9.252;2024-01-15T07:01:23;2.60;33.70
439;DHT22;206;48.782;9.252;2024-01-15T07:03:48;2.60;33.40
439;DHT22;206;48.782;9.252;2024-01-15T07:06:14;2.50;33.60
439;DHT22;206;48.782;9.252;2024-01-15T07:08:40;2.50;33.70
439;DHT22;206;48.782;9.252;2024-01-15T07:11:07;2.50;33.60
439;DHT22;206;48.782;9.252;2024-01-15T07:13:33;2.60;33.50
439;DHT22;206;48.782;9.252;2024-01-15T07:15:59;2.60;32.30
439;DHT22;206;48.782;9.252;2024-01-15T07:18:25;2.70;32.80
439;DHT22;206;48.782;9.252;2024-01-15T07:20:51;2.70;31.70
439;DHT22;206;48.782;9.252;2024-01-15T07:23:17;2.70;31.30
439;DHT22;206;48.782;9.252;2024-01-15T07:25:43;2.70;31.50
439;DHT22;206;48.782;9.252;2024-01-15T07:28:08;2.80;30.70
439;DHT22;206;48.782;9.252;2024-01-15T07:30:34;2.80;30.00
439;DHT22;206;48.782;9.252;2024-01-15T07:33:00;2.80;29.70
439;DHT22;206;48.782;9.252;2024-01-15T07:35:25;2.90;29.70
439;DHT22;206;48.782;9.252;2024-01-15T07:37:51;2.90;29.30
439;DHT22;206;48.782;9.252;2024-01-15T07:40:16;3.00;29.30
439;DHT22;206;48.782;9.252;2024-01-15T07:42:42;3.00;29.30
439;DHT22;206;48.782;9.252;2024-01-15T07:45:08;3.10;28.90
439;DHT22;206;48.782;9.252;2024-01-15T07:47:34;3.10;28.60
439;DHT22;206;48.782;9.252;2024-01-15T07:50:00;3.10;28.40
439;DHT22;206;48.782;9.252;2024-01-15T07:52:26;3.10;28.10
439;DHT22;206;48.782;9.252;2024-01-15T07:54:51;3.10;27.70
439;DHT22;206;48.782;9.252;2024-01-15T07:57:17;3.10;27.90
439;DHT22;206;48.782;9.252;2024-01-15T07:59:43;3.10;27.90
439;DHT22;206;48.782;9.252;2024-01-15T08:02:08;3.20;27.60
439;DHT22;206;48.782;9.252;2024-01-15T08:04:34;3.20;27.40
439;DHT22;206;48.782;9.252;2024-01-15T08:06:59;3.20;27.20
439;DHT22;206;48.782;9.252;2024-01-15T08:09:25;3.20;27.00
439;DHT22;206;48.782;9.252;2024-01-15T08:11:51;3.20;27.10
439;DHT22;206;48.782;9.252;2024-01-15T08:14:17;3.20;27.30
439;DHT22;206;48.782;9.252;2024-01-15T08:16:42;3.10;27.00
439;DHT22;206;48.782;9.252;2024-01-15T08:19:09;3.10;27.10
439;DHT22;206;48.782;9.252;2024-01-15T08:21:34;3.10;27.20
439;DHT22;206;48.782;9.252;2024-01-15T08:24:01;3.10;26.90
439;DHT22;206;48.782;9.252;2024-01-15T08:26:28;3.10;26.90
439;DHT22;206;48.782;9.252;2024-01-15T08:28:54;3.20;26.70
439;DHT22;206;48.782;9.252;2024-01-15T08:31:19;3.20;26.60
439;DHT22;206;48.782;9.252;2024-01-15T08:33:45;3.30;26.60
439;DHT22;206;48.782;9.252;2024-01-15T08:36:11;3.40;26.40
439;DHT22;206;48.782;9.252;2024-01-15T08:38:36;3.40;26.30
439;DHT22;206;48.782;9.252;2024-01-15T08:41:02;3.40;25.70
439;DHT22;206;48.782;9.252;2024-01-15T08:43:28;3.40;25.70
439;DHT22;206;48.782;9.252;2024-01-15T08:45:53;3.50;25.80
439;DHT22;206;48.782;9.252;2024-01-15T08:48:19;3.50;25.80
439;DHT22;206;48.782;9.252;2024-01-15T08:50:45;3.50;25.50
439;DHT22;206;48.782;9.252;2024-01-15T08:53:14;3.60;25.50
439;DHT22;206;48.782;9.252;2024-01-15T08:55:40;3.60;25.40
439;DHT22;206;48.782;9.252;2024-01-15T08:58:08;3.70;25.50
439;DHT22;206;48.782;9.252;2024-01-15T09:00:33;3.70;25.00
439;DHT22;206;48.782;9.252;2024-01-15T09:02:59;3.70;25.00
439;DHT22;206;48.782;9.252;2024-01-15T09:05:25;3.80;25.20
439;DHT22;206;48.782;9.252;2024-01-15T09:07:50;3.90;25.10
439;DHT22;206;48.782;9.252;2024-01-15T09:10:18;4.00;24.60
439;DHT22;206;48.782;9.252;2024-01-15T09:12:43;4.00;24.60
439;DHT22;206;48.782;9.252;2024-01-15T09:15:09;4.10;24.30
439;DHT22;206;48.782;9.252;2024-01-15T09:17:35;4.20;23.80
439;DHT22;206;48.782;9.252;2024-01-15T09:20:00;4.20;23.80
439;DHT22;206;48.782;9.252;2024-01-15T09:22:26;4.20;23.10
439;DHT22;206;48.782;9.252;2024-01-15T09:24:52;4.30;23.50
439;DHT22;206;48.782;9.252;2024-01-15T09:27:18;4.30;23.40
439;DHT22;206;48.782;9.252;2024-01-15T09:29:44;4.40;23.40
439;DHT22;206;48.782;9.252;2024-01-15T09:32:11;4.50;23.30
439;DHT22;206;48.782;9.252;2024-01-15T09:34:38;4.60;23.10
439;DHT22;206;48.782;9.252;2024-01-15T09:37:04;4.60;22.90
439;DHT22;206;48.782;9.252;2024-01-15T09:39:30;4.60;22.80
439;DHT22;206;48.782;9.252;2024-01-15T09:41:56;4.70;22.50
439;DHT22;206;48.782;9.252;2024-01-15T09:44:22;4.70;22.50
439;DHT22;206;48.782;9.252;2024-01-15T09:46:48;4.70;22.50
439;DHT22;206;48.782;9.252;2024-01-15T09:49:16;4.80;22.60
439;DHT22;206;48.782;9.252;2024-01-15T09:51:42;4.90;22.70
439;DHT22;206;48.782;9.252;2024-01-15T09:54:08;4.90;22.80
439;DHT22;206;48.782;9.252;2024-01-15T09:56:34;4.90;22.10
439;DHT22;206;48.782;9.252;2024-01-15T09:59:01;4.90;22.30
439;DHT22;206;48.782;9.252;2024-01-15T10:01:28;4.80;22.20
439;DHT22;206;48.782;9.252;2024-01-15T10:03:54;4.70;22.50
439;DHT22;206;48.782;9.252;2024-01-15T10:06:21;4.60;22.50
439;DHT22;206;48.782;9.252;2024-01-15T10:08:49;4.60;22.50
439;DHT22;206;48.782;9.252;2024-01-15T10:11:15;4.70;22.50
439;DHT22;206;48.782;9.252;2024-01-15T10:13:43;4.80;22.60
439;DHT22;206;48.782;9.252;2024-01-15T10:16:08;4.90;22.70
439;DHT22;206;48.782;9.252;2024-01-15T10:18:34;4.90;22.70
439;DHT22;206;48.782;9.252;2024-01-15T10:21:03;5.00;22.80
439;DHT22;206;48.782;9.252;2024-01-15T10:23:31;5.00;22.70
439;DHT22;206;48.782;9.252;2024-01-15T10:25:58;4.90;22.70
439;DHT22;206;48.782;9.252;2024-01-15T10:28:26;4.90;23.20
439;DHT22;206;48.782;9.252;2024-01-15T10:30:56;4.80;22.60
439;DHT22;206;48.782;9.252;2024-01-15T10:33:22;4.70;22.50
439;DHT22;206;48.782;9.252;2024-01-15T10:35:54;4.70;22.50
439;DHT22;206;48.782;9.252;2024-01-15T10:38:21;4.60;22.70
439;DHT22;206;48.782;9.252;2024-01-15T10:40:56;4.60;22.90
439;DHT22;206;48.782;9.252;2024-01-15T10:43:22;4.60;22.90
439;DHT22;206;48.782;9.252;2024-01-15T10:45:50;4.70;22.60
439;DHT22;206;48.782;9.252;2024-01-15T10:48:17;4.60;22.80
439;DHT22;206;48.782;9.252;2024-01-15T10:50:47;4.60;23.20
439;DHT22;206;48.782;9.252;2024-01-15T10:53:14;4.60;23.00
439;DHT22;206;48.782;9.252;2024-01-15T10:55:42;4.70;23.20
439;DHT22;206;48.782;9.252;2024-01-15T10:58:08;4.80;22.70
439;DHT22;206;48.782;9.252;2024-01-15T11:00:38;4.80;22.90
439;DHT22;206;48.782;9.252;2024-01-15T11:03:05;4.90;22.70
439;DHT22;206;48.782;9.252;2024-01-15T11:05:38;4.90;22.70
439;DHT22;206;48.782;9.252;2024-01-15T11:08:06;4.80;22.60
439;DHT22;206;48.782;9.252;2024-01-15T11:10:50;4.70;23.30
439;DHT22;206;48.782;9.252;2024-01-15T11:16:06;4.60;24.00
439;DHT22;206;48.782;9.252;2024-01-15T11:18:35;4.60;23.90
439;DHT22;206;48.782;9.252;2024-01-15T11:23:53;4.70;24.80
439;DHT22;206;48.782;9.252;2024-01-15T11:26:46;4.60;25.30
439;DHT22;206;48.782;9.252;2024-01-15T11:34:21;4.40;29.30
439;DHT22;206;48.782;9.252;2024-01-15T11:37:07;4.40;28.60
439;DHT22;206;48.782;9.252;2024-01-15T11:42:00;4.40;28.30
439;DHT22;206;48.782;9.252;2024-01-15T11:44:26;4.50;29.00
439;DHT22;206;48.782;9.252;2024-01-15T11:47:02;4.50;29.60
439;DHT22;206;48.782;9.252;2024-01-15T11:52:17;4.60;28.90
439;DHT22;206;48.782;9.252;2024-01-15T11:54:52;4.50;29.00
439;DHT22;206;48.782;9.252;2024-01-15T11:57:33;4.40;30.00
439;DHT22;206;48.782;9.252;2024-01-15T11:59:58;4.40;30.50
439;DHT22;206;48.782;9.252;2024-01-15T12:02:24;4.30;30.30
439;DHT22;206;48.782;9.252;2024-01-15T12:04:50;4.40;31.10
439;DHT22;206;48.782;9.252;2024-01-15T12:07:15;4.20;32.30
439;DHT22;206;48.782;9.252;2024-01-15T12:09:44;4.20;32.10
439;DHT22;206;48.782;9.252;2024-01-15T12:12:16;4.20;33.40
439;DHT22;206;48.782;9.252;2024-01-15T12:14:46;4.30;33.70
439;DHT22;206;48.782;9.252;2024-01-15T12:17:11;4.30;32.00
439;DHT22;206;48.782;9.252;2024-01-15T12:19:37;4.30;32.40
439;DHT22;206;48.782;9.252;2024-01-15T12:22:03;4.30;32.40
439;DHT22;206;48.782;9.252;2024-01-15T12:24:29;4.30;33.30
439;DHT22;206;48.782;9.252;2024-01-15T12:26:54;4.30;34.70
439;DHT22;206;48.782;9.252;2024-01-15T12:29:20;4.30;35.10
439;DHT22;206;48.782;9.252;2024-01-15T12:31:49;4.20;36.40
439;DHT22;206;48.782;9.252;2024-01-15T12:34:14;4.20;37.00
439;DHT22;206;48.782;9.252;2024-01-15T12:36:40;4.00;38.30
439;DHT22;206;48.782;9.252;2024-01-15T12:39:10;4.00;39.80
439;DHT22;206;48.782;9.252;2024-01-15T12:41:37;4.00;41.20
439;DHT22;206;48.782;9.252;2024-01-15T12:44:03;4.10;43.00
439;DHT22;206;48.782;9.252;2024-01-15T12:46:29;4.10;41.50
439;DHT22;206;48.782;9.252;2024-01-15T12:48:56;4.00;42.70
439;DHT22;206;48.782;9.252;2024-01-15T12:51:25;4.10;43.10
439;DHT22;206;48.782;9.252;2024-01-15T12:53:51;4.10;43.60
439;DHT22;206;48.782;9.252;2024-01-15T12:56:16;4.00;43.60
439;DHT22;206;48.782;9.252;2024-01-15T12:58:42;4.00;47.20
439;DHT22;206;48.782;9.252;2024-01-15T13:01:08;4.00;48.20
439;DHT22;206;48.782;9.252;2024-01-15T13:03:33;3.90;47.90
439;DHT22;206;48.782;9.252;2024-01-15T13:05:59;3.80;48.50
439;DHT22;206;48.782;9.252;2024-01-15T13:08:24;3.80;49.20
439;DHT22;206;48.782;9.252;2024-01-15T13:10:52;3.90;49.30
439;DHT22;206;48.782;9.252;2024-01-15T13:13:21;3.90;49.30
439;DHT22;206;48.782;9.252;2024-01-15T13:15:47;3.90;48.20
439;DHT22;206;48.782;9.252;2024-01-15T13:18:12;3.90;47.50
439;DHT22;206;48.782;9.252;2024-01-15T13:20:38;3.90;47.80
439;DHT22;206;48.782;9.252;2024-01-15T13:23:04;3.90;47.90
439;DHT22;206;48.782;9.252;2024-01-15T13:25:29;3.90;48.80
439;DHT22;206;48.782;9.252;2024-01-15T13:27:55;4.00;49.40
439;DHT22;206;48.782;9.252;2024-01-15T13:30:20;3.90;48.60
439;DHT22;206;48.782;9.252;2024-01-15T13:32:46;3.90;48.80
439;DHT22;206;48.782;9.252;2024-01-15T13:35:12;3.90;48.30
439;DHT22;206;48.782;9.252;2024-01-15T13:37:39;3.90;47.70
439;DHT22;206;48.782;9.252;2024-01-15T13:40:07;3.80;49.20
439;DHT22;206;48.782;9.252;2024-01-15T13:42:35;3.80;49.20
439;DHT22;206;48.782;9.252;2024-01-15T13:45:04;3.80;49.20
439;DHT22;206;48.782;9.252;2024-01-15T13:47:31;3.90;49.30
439;DHT22;206;48.782;9.252;2024-01-15T13:49:57;3.90;49.30
439;DHT22;206;48.782;9.252;2024-01-15T13:52:23;4.00;49.40
439;DHT22;206;48.782;9.252;2024-01-15T13:54:49;3.90;49.30
439;DHT22;206;48.782;9.252;2024-01-15T13:57:15;4.00;49.40
439;DHT22;206;48.782;9.252;2024-01-15T13:59:40;4.00;50.30
439;DHT22;206;48.782;9.252;2024-01-15T14:02:06;4.00;50.70
439;DHT22;206;48.782;9.252;2024-01-15T14:04:32;4.00;50.80
439;DHT22;206;48.782;9.252;2024-01-15T14:06:57;4.10;51.10
439;DHT22;206;48.782;9.252;2024-01-15T14:09:23;4.10;50.10
439;DHT22;206;48.782;9.252;2024-01-15T14:11:49;4.10;50.30
439;DHT22;206;48.782;9.252;2024-01-15T14:14:14;4.10;50.00
439;DHT22;206;48.782;9.252;2024-01-15T14:16:40;4.10;49.60
439;DHT22;206;48.782;9.252;2024-01-15T14:19:06;4.10;50.10
439;DHT22;206;48.782;9.252;2024-01-15T14:21:35;4.20;49.70
439;DHT22;206;48.782;9.252;2024-01-15T14:24:01;4.20;49.60
439;DHT22;206;48.782;9.252;2024-01-15T14:26:26;4.20;49.60
439;DHT22;206;48.782;9.252;2024-01-15T14:28:53;4.30;48.20
439;DHT22;206;48.782;9.252;2024-01-15T14:31:20;4.30;48.00
439;DHT22;206;48.782;9.252;2024-01-15T14:33:45;4.30;47.30
439;DHT22;206;48.782;9.252;2024-01-15T14:36:11;4.30;47.30
439;DHT22;206;48.782;9.252;2024-01-15T14:38:36;4.20;46.80
439;DHT22;206;48.782;9.252;2024-01-15T14:41:02;4.20;47.00
439;DHT22;206;48.782;9.252;2024-01-15T14:43:28;4.20;48.30
439;DHT22;206;48.782;9.252;2024-01-15T14:45:53;4.20;48.40
439;DHT22;206;48.782;9.252;2024-01-15T14:48:19;4.20;48.30
439;DHT22;206;48.782;9.252;2024-01-15T14:50:45;4.10;48.70
439;DHT22;206;48.782;9.252;2024-01-15T14:53:11;4.10;48.70
439;DHT22;206;48.782;9.252;2024-01-15T14:55:36;3.90;47.00
439;DHT22;206;48.782;9.252;2024-01-15T14:58:02;3.70;49.30
439;DHT22;206;48.782;9.252;2024-01-15T15:00:28;3.60;55.20
439;DHT22;206;48.782;9.252;2024-01-15T15:02:53;3.60;58.30
439;DHT22;206;48.782;9.252;2024-01-15T15:05:19;3.60;58.30
439;DHT22;206;48.782;9.252;2024-01-15T15:07:45;3.60;58.80
439;DHT22;206;48.782;9.252;2024-01-15T15:10:11;3.60;58.30
439;DHT22;206;48.782;9.252;2024-01-15T15:12:37;3.60;58.30
439;DHT22;206;48.782;9.252;2024-01-15T15:15:03;3.50;56.20
439;DHT22;206;48.782;9.252;2024-01-15T15:17:29;3.50;53.60
439;DHT22;206;48.782;9.252;2024-01-15T15:19:54;3.30;54.80
439;DHT22;206;48.782;9.252;2024-01-15T15:22:20;3.20;55.60
439;DHT22;206;48.782;9.252;2024-01-15T15:24:46;3.20;56.00
439;DHT22;206;48.782;9.252;2024-01-15T15:27:12;3.20;56.20
439;DHT22;206;48.782;9.252;2024-01-15T15:29:37;3.10;50.50
439;DHT22;206;48.782;9.252;2024-01-15T15:32:03;3.10;52.30
439;DHT22;206;48.782;9.252;2024-01-15T15:34:29;3.10;50.10
439;DHT22;206;48.782;9.252;2024-01-15T15:36:54;3.20;49.10
439;DHT22;206;48.782;9.252;2024-01-15T15:39:20;3.20;49.40
439;DHT22;206;48.782;9.252;2024-01-15T15:41:46;3.20;48.70
439;DHT22;206;48.782;9.252;2024-01-15T15:44:11;3.30;47.40
439;DHT22;206;48.782;9.252;2024-01-15T15:46:40;3.30;46.20
439;DHT22;206;48.782;9.252;2024-01-15T15:49:05;3.30;43.30
439;DHT22;206;48.782;9.252;2024-01-15T15:51:32;3.30;42.70
439;DHT22;206;48.782;9.252;2024-01-15T15:53:58;3.40;42.40
439;DHT22;206;48.782;9.252;2024-01-15T15:56:24;3.40;40.40
439;DHT22;206;48.782;9.252;2024-01-15T15:58:51;3.40;40.10
439;DHT22;206;48.782;9.252;2024-01-15T16:01:17;3.40;39.90
439;DHT22;206;48.782;9.252;2024-01-15T16:03:42;3.40;39.10
439;DHT22;206;48.782;9.252;2024-01-15T16:06:08;3.40;39.30
439;DHT22;206;48.782;9.252;2024-01-15T16:08:34;3.50;39.30
439;DHT22;206;48.782;9.252;2024-01-15T16:10:59;3.50;38.00
439;DHT22;206;48.782;9.252;2024-01-15T16:13:25;3.50;38.70
439;DHT22;206;48.782;9.252;2024-01-15T16:15:50;3.50;38.00
439;DHT22;206;48.782;9.252;2024-01-15T16:18:16;3.50;38.00
439;DHT22;206;48.782;9.252;2024-01-15T16:20:42;3.50;39.20
439;DHT22;206;48.782;9.252;2024-01-15T16:23:07;3.50;38.70
439;DHT22;206;48.782;9.252;2024-01-15T16:25:33;3.50;38.50
439;DHT22;206;48.782;9.252;2024-01-15T16:28:03;3.40;37.20
439;DHT22;206;48.782;9.252;2024-01-15T16:30:29;3.40;37.10
439;DHT22;206;48.782;9.252;2024-01-15T16:32:55;3.30;36.90
439;DHT22;206;48.782;9.252;2024-01-15T16:35:20;3.40;38.00
439;DHT22;206;48.782;9.252;2024-01-15T16:37:46;3.40;37.80
439;DHT22;206;48.782;9.252;2024-01-15T16:40:12;3.50;37.00
439;DHT22;206;48.782;9.252;2024-01-15T16:42:38;3.50;36.50
439;DHT22;206;48.782;9.252;2024-01-15T16:45:04;3.50;36.30
439;DHT22;206;48.782;9.252;2024-01-15T16:47:30;3.50;36.10
439;DHT22;206;48.782;9.252;2024-01-15T16:49:56;3.40;34.60
439;DHT22;206;48.782;9.252;2024-01-15T16:52:21;3.30;35.00
439;DHT22;206;48.782;9.252;2024-01-15T16:54:47;3.30;35.50
439;DHT22;206;48.782;9.252;2024-01-15T16:57:13;3.30;35.60
439;DHT22;206;48.782;9.252;2024-01-15T16:59:38;3.30;35.00